sensor_id;sensor_type;location;lat;lon;timestamp;P1;durP1;ratioP1;P2;durP2;ratioP2
21697;SDS011;11010;49.548;11.926;2023-12-04T00:02:02;18.77;;;6.83;;
21697;SDS011;11010;49.548;11.926;2023-12-04T00:04:30;18.40;;;7.43;;
21697;SDS011;11010;49.548;11.926;2023-12-04T00:06:58;17.50;;;6.50;;
21697;SDS011;11010;49.548;11.926;2023-12-04T00:09:25;17.87;;;7.30;;
21697;SDS011;11010;49.548;11.926;2023-12-04T00:11:54;16.93;;;6.90;;
21697;SDS011;11010;49.548;11.926;2023-12-04T00:14:21;16.53;;;7.30;;
21697;SDS011;11010;49.548;11.926;2023-12-04T00:16:48;19.30;;;6.77;;
21697;SDS011;11010;49.548;11.926;2023-12-04T00:19:16;16.83;;;6.77;;
21697;SDS011;11010;49.548;11.926;2023-12-04T00:21:43;18.93;;;7.20;;
21697;SDS011;11010;49.548;11.926;2023-12-04T00:24:11;16.17;;;6.63;;
21697;SDS011;11010;49.548;11.926;2023-12-04T00:26:38;17.23;;;7.03;;
21697;SDS011;11010;49.548;11.926;2023-12-04T00:29:07;17.03;;;6.57;;
21697;SDS011;11010;49.548;11.926;2023-12-04T00:31:34;16.20;;;6.83;;
21697;SDS011;11010;49.548;11.926;2023-12-04T00:34:02;16.10;;;6.57;;
21697;SDS011;11010;49.548;11.926;2023-12-04T00:36:29;19.20;;;6.90;;
21697;SDS011;11010;49.548;11.926;2023-12-04T00:38:57;18.90;;;6.93;;
21697;SDS011;11010;49.548;11.926;2023-12-04T00:41:24;16.97;;;6.37;;
21697;SDS011;11010;49.548;11.926;2023-12-04T00:43:52;16.77;;;6.30;;
21697;SDS011;11010;49.548;11.926;2023-12-04T00:46:20;17.67;;;6.97;;
21697;SDS011;11010;49.548;11.926;2023-12-04T00:48:47;17.57;;;6.63;;
21697;SDS011;11010;49.548;11.926;2023-12-04T00:51:15;16.37;;;6.17;;
21697;SDS011;11010;49.548;11.926;2023-12-04T00:53:42;18.60;;;6.67;;
21697;SDS011;11010;49.548;11.926;2023-12-04T00:56:10;17.67;;;6.87;;
21697;SDS011;11010;49.548;11.926;2023-12-04T00:58:37;16.80;;;6.90;;
21697;SDS011;11010;49.548;11.926;2023-12-04T01:01:05;18.43;;;6.90;;
21697;SDS011;11010;49.548;11.926;2023-12-04T01:03:33;16.53;;;6.60;;
21697;SDS011;11010;49.548;11.926;2023-12-04T01:06:00;18.90;;;6.97;;
21697;SDS011;11010;49.548;11.926;2023-12-04T01:08:28;18.80;;;6.40;;
21697;SDS011;11010;49.548;11.926;2023-12-04T01:10:55;17.83;;;6.57;;
21697;SDS011;11010;49.548;11.926;2023-12-04T01:13:22;18.80;;;6.80;;
21697;SDS011;11010;49.548;11.926;2023-12-04T01:15:50;16.73;;;6.30;;
21697;SDS011;11010;49.548;11.926;2023-12-04T01:18:17;17.63;;;6.57;;
21697;SDS011;11010;49.548;11.926;2023-12-04T01:20:45;17.07;;;6.47;;
21697;SDS011;11010;49.548;11.926;2023-12-04T01:23:12;16.50;;;6.60;;
21697;SDS011;11010;49.548;11.926;2023-12-04T01:25:40;16.03;;;6.27;;
21697;SDS011;11010;49.548;11.926;2023-12-04T01:28:07;17.97;;;6.30;;
21697;SDS011;11010;49.548;11.926;2023-12-04T01:30:35;15.27;;;5.80;;
21697;SDS011;11010;49.548;11.926;2023-12-04T01:33:02;16.13;;;6.30;;
21697;SDS011;11010;49.548;11.926;2023-12-04T01:35:30;18.47;;;6.60;;
21697;SDS011;11010;49.548;11.926;2023-12-04T01:37:57;18.23;;;6.67;;
21697;SDS011;11010;49.548;11.926;2023-12-04T01:40:25;16.70;;;6.33;;
21697;SDS011;11010;49.548;11.926;2023-12-04T01:42:53;17.07;;;6.57;;
21697;SDS011;11010;49.548;11.926;2023-12-04T01:45:20;17.57;;;6.87;;
21697;SDS011;11010;49.548;11.926;2023-12-04T01:47:48;15.17;;;6.30;;
21697;SDS011;11010;49.548;11.926;2023-12-04T01:50:15;16.93;;;6.37;;
21697;SDS011;11010;49.548;11.926;2023-12-04T01:52:43;15.87;;;6.37;;
21697;SDS011;11010;49.548;11.926;2023-12-04T01:55:10;16.23;;;6.67;;
21697;SDS011;11010;49.548;11.926;2023-12-04T01:57:38;17.20;;;6.10;;
21697;SDS011;11010;49.548;11.926;2023-12-04T02:00:05;16.53;;;6.37;;
21697;SDS011;11010;49.548;11.926;2023-12-04T02:02:38;17.87;;;6.20;;
21697;SDS011;11010;49.548;11.926;2023-12-04T02:05:07;16.33;;;6.50;;
21697;SDS011;11010;49.548;11.926;2023-12-04T02:07:35;18.53;;;6.27;;
21697;SDS011;11010;49.548;11.926;2023-12-04T02:10:05;16.73;;;6.23;;
21697;SDS011;11010;49.548;11.926;2023-12-04T02:12:33;15.07;;;5.73;;
21697;SDS011;11010;49.548;11.926;2023-12-04T02:15:01;16.60;;;5.97;;
21697;SDS011;11010;49.548;11.926;2023-12-04T02:17:28;16.63;;;6.30;;
21697;SDS011;11010;49.548;11.926;2023-12-04T02:19:56;15.67;;;6.50;;
21697;SDS011;11010;49.548;11.926;2023-12-04T02:22:23;17.10;;;6.20;;
21697;SDS011;11010;49.548;11.926;2023-12-04T02:24:51;17.40;;;6.33;;
21697;SDS011;11010;49.548;11.926;2023-12-04T02:27:28;16.50;;;6.13;;
21697;SDS011;11010;49.548;11.926;2023-12-04T02:30:00;19.33;;;7.13;;
21697;SDS011;11010;49.548;11.926;2023-12-04T02:32:29;17.90;;;6.67;;
21697;SDS011;11010;49.548;11.926;2023-12-04T02:34:57;18.50;;;6.33;;
21697;SDS011;11010;49.548;11.926;2023-12-04T02:37:26;17.13;;;6.60;;
21697;SDS011;11010;49.548;11.926;2023-12-04T02:39:54;16.57;;;6.00;;
21697;SDS011;11010;49.548;11.926;2023-12-04T02:42:22;16.13;;;6.20;;
21697;SDS011;11010;49.548;11.926;2023-12-04T02:44:51;16.60;;;6.30;;
21697;SDS011;11010;49.548;11.926;2023-12-04T02:47:19;18.57;;;7.20;;
21697;SDS011;11010;49.548;11.926;2023-12-04T02:49:46;16.17;;;6.83;;
21697;SDS011;11010;49.548;11.926;2023-12-04T02:52:14;17.10;;;6.27;;
21697;SDS011;11010;49.548;11.926;2023-12-04T02:54:41;17.10;;;6.37;;
21697;SDS011;11010;49.548;11.926;2023-12-04T02:57:08;18.47;;;7.03;;
21697;SDS011;11010;49.548;11.926;2023-12-04T02:59:36;15.67;;;6.00;;
21697;SDS011;11010;49.548;11.926;2023-12-04T03:02:03;18.53;;;7.27;;
21697;SDS011;11010;49.548;11.926;2023-12-04T03:04:31;17.90;;;7.27;;
21697;SDS011;11010;49.548;11.926;2023-12-04T03:06:58;15.90;;;6.43;;
21697;SDS011;11010;49.548;11.926;2023-12-04T03:09:26;16.73;;;6.57;;
21697;SDS011;11010;49.548;11.926;2023-12-04T03:12:13;15.47;;;5.97;;
21697;SDS011;11010;49.548;11.926;2023-12-04T03:14:41;15.97;;;6.37;;
21697;SDS011;11010;49.548;11.926;2023-12-04T03:17:08;17.30;;;6.57;;
21697;SDS011;11010;49.548;11.926;2023-12-04T03:19:36;17.57;;;6.73;;
21697;SDS011;11010;49.548;11.926;2023-12-04T03:22:03;17.00;;;6.17;;
21697;SDS011;11010;49.548;11.926;2023-12-04T03:24:31;17.97;;;6.07;;
21697;SDS011;11010;49.548;11.926;2023-12-04T03:26:58;15.87;;;5.97;;
21697;SDS011;11010;49.548;11.926;2023-12-04T03:29:26;15.90;;;6.60;;
21697;SDS011;11010;49.548;11.926;2023-12-04T03:31:53;16.63;;;6.13;;
21697;SDS011;11010;49.548;11.926;2023-12-04T03:34:20;17.50;;;6.80;;
21697;SDS011;11010;49.548;11.926;2023-12-04T03:36:48;17.40;;;6.33;;
21697;SDS011;11010;49.548;11.926;2023-12-04T03:39:15;17.97;;;6.67;;
21697;SDS011;11010;49.548;11.926;2023-12-04T03:41:43;19.63;;;6.53;;
21697;SDS011;11010;49.548;11.926;2023-12-04T03:44:11;18.70;;;6.70;;
21697;SDS011;11010;49.548;11.926;2023-12-04T03:46:38;18.67;;;7.30;;
21697;SDS011;11010;49.548;11.926;2023-12-04T03:49:06;17.33;;;6.90;;
21697;SDS011;11010;49.548;11.926;2023-12-04T03:51:33;20.93;;;7.40;;
21697;SDS011;11010;49.548;11.926;2023-12-04T03:54:01;20.10;;;6.93;;
21697;SDS011;11010;49.548;11.926;2023-12-04T03:56:28;20.20;;;7.17;;
21697;SDS011;11010;49.548;11.926;2023-12-04T03:58:56;18.27;;;7.03;;
21697;SDS011;11010;49.548;11.926;2023-12-04T04:01:24;20.87;;;7.60;;
21697;SDS011;11010;49.548;11.926;2023-12-04T04:03:51;16.80;;;6.37;;
21697;SDS011;11010;49.548;11.926;2023-12-04T04:06:19;16.20;;;6.27;;
21697;SDS011;11010;49.548;11.926;2023-12-04T04:08:46;17.83;;;6.93;;
21697;SDS011;11010;49.548;11.926;2023-12-04T04:11:14;19.17;;;6.60;;
21697;SDS011;11010;49.548;11.926;2023-12-04T04:13:41;21.60;;;7.30;;
21697;SDS011;11010;49.548;11.926;2023-12-04T04:16:13;16.70;;;6.57;;
21697;SDS011;11010;49.548;11.926;2023-12-04T04:18:42;17.00;;;6.63;;
21697;SDS011;11010;49.548;11.926;2023-12-04T04:21:10;19.67;;;6.40;;
21697;SDS011;11010;49.548;11.926;2023-12-04T04:23:37;16.20;;;6.53;;
21697;SDS011;11010;49.548;11.926;2023-12-04T04:26:04;18.40;;;6.80;;
21697;SDS011;11010;49.548;11.926;2023-12-04T04:28:32;18.10;;;6.77;;
21697;SDS011;11010;49.548;11.926;2023-12-04T04:30:59;18.63;;;6.80;;
21697;SDS011;11010;49.548;11.926;2023-12-04T04:33:27;17.70;;;6.90;;
21697;SDS011;11010;49.548;11.926;2023-12-04T04:35:54;17.87;;;6.20;;
21697;SDS011;11010;49.548;11.926;2023-12-04T04:38:22;15.20;;;6.13;;
21697;SDS011;11010;49.548;11.926;2023-12-04T04:40:49;14.80;;;6.10;;
21697;SDS011;11010;49.548;11.926;2023-12-04T04:43:19;16.77;;;6.67;;
21697;SDS011;11010;49.548;11.926;2023-12-04T04:45:46;17.33;;;6.60;;
21697;SDS011;11010;49.548;11.926;2023-12-04T04:48:14;17.50;;;6.03;;
21697;SDS011;11010;49.548;11.926;2023-12-04T04:50:42;17.87;;;6.57;;
21697;SDS011;11010;49.548;11.926;2023-12-04T04:53:09;16.93;;;6.33;;
21697;SDS011;11010;49.548;11.926;2023-12-04T04:55:36;17.03;;;5.90;;
21697;SDS011;11010;49.548;11.926;2023-12-04T04:58:14;17.43;;;6.53;;
21697;SDS011;11010;49.548;11.926;2023-12-04T05:00:42;18.50;;;6.47;;
21697;SDS011;11010;49.548;11.926;2023-12-04T05:03:10;16.37;;;5.97;;
21697;SDS011;11010;49.548;11.926;2023-12-04T05:05:37;16.77;;;6.10;;
21697;SDS011;11010;49.548;11.926;2023-12-04T05:08:05;18.70;;;6.43;;
21697;SDS011;11010;49.548;11.926;2023-12-04T05:10:32;18.03;;;6.47;;
21697;SDS011;11010;49.548;11.926;2023-12-04T05:13:00;16.03;;;5.87;;
21697;SDS011;11010;49.548;11.926;2023-12-04T05:15:27;16.27;;;6.03;;
21697;SDS011;11010;49.548;11.926;2023-12-04T05:17:55;18.93;;;6.80;;
21697;SDS011;11010;49.548;11.926;2023-12-04T05:20:23;19.83;;;6.83;;
21697;SDS011;11010;49.548;11.926;2023-12-04T05:22:51;15.33;;;5.83;;
21697;SDS011;11010;49.548;11.926;2023-12-04T05:25:18;16.33;;;6.03;;
21697;SDS011;11010;49.548;11.926;2023-12-04T05:27:46;17.40;;;5.83;;
21697;SDS011;11010;49.548;11.926;2023-12-04T05:30:15;16.37;;;5.83;;
21697;SDS011;11010;49.548;11.926;2023-12-04T05:32:43;13.97;;;5.20;;
21697;SDS011;11010;49.548;11.926;2023-12-04T05:35:10;18.57;;;6.10;;
21697;SDS011;11010;49.548;11.926;2023-12-04T05:37:38;16.47;;;5.87;;
21697;SDS011;11010;49.548;11.926;2023-12-04T05:40:05;15.50;;;5.77;;
21697;SDS011;11010;49.548;11.926;2023-12-04T05:42:33;15.40;;;6.00;;
21697;SDS011;11010;49.548;11.926;2023-12-04T05:45:00;16.57;;;5.80;;
21697;SDS011;11010;49.548;11.926;2023-12-04T05:47:28;15.17;;;5.30;;
21697;SDS011;11010;49.548;11.926;2023-12-04T05:49:55;14.43;;;5.63;;
21697;SDS011;11010;49.548;11.926;2023-12-04T05:52:23;14.53;;;5.87;;
21697;SDS011;11010;49.548;11.926;2023-12-04T05:54:50;15.47;;;5.73;;
21697;SDS011;11010;49.548;11.926;2023-12-04T05:57:18;14.30;;;5.20;;
21697;SDS011;11010;49.548;11.926;2023-12-04T05:59:45;16.17;;;5.70;;
21697;SDS011;11010;49.548;11.926;2023-12-04T06:02:13;15.60;;;5.93;;
21697;SDS011;11010;49.548;11.926;2023-12-04T06:04:42;17.17;;;5.93;;
21697;SDS011;11010;49.548;11.926;2023-12-04T06:07:09;16.73;;;7.23;;
21697;SDS011;11010;49.548;11.926;2023-12-04T06:09:36;17.63;;;7.40;;
21697;SDS011;11010;49.548;11.926;2023-12-04T06:12:04;17.47;;;6.50;;
21697;SDS011;11010;49.548;11.926;2023-12-04T06:14:35;14.93;;;6.07;;
21697;SDS011;11010;49.548;11.926;2023-12-04T06:17:03;15.50;;;6.47;;
21697;SDS011;11010;49.548;11.926;2023-12-04T06:19:32;16.33;;;5.83;;
21697;SDS011;11010;49.548;11.926;2023-12-04T06:21:59;19.23;;;6.50;;
21697;SDS011;11010;49.548;11.926;2023-12-04T06:24:27;17.53;;;6.87;;
21697;SDS011;11010;49.548;11.926;2023-12-04T06:26:54;16.63;;;6.10;;
21697;SDS011;11010;49.548;11.926;2023-12-04T06:29:23;17.50;;;6.07;;
21697;SDS011;11010;49.548;11.926;2023-12-04T06:31:51;20.20;;;7.17;;
21697;SDS011;11010;49.548;11.926;2023-12-04T06:34:19;17.80;;;6.13;;
21697;SDS011;11010;49.548;11.926;2023-12-04T06:36:46;17.90;;;6.83;;
21697;SDS011;11010;49.548;11.926;2023-12-04T06:39:14;16.83;;;6.90;;
21697;SDS011;11010;49.548;11.926;2023-12-04T06:41:44;17.93;;;6.73;;
21697;SDS011;11010;49.548;11.926;2023-12-04T06:44:13;16.53;;;6.30;;
21697;SDS011;11010;49.548;11.926;2023-12-04T06:46:40;18.63;;;7.43;;
21697;SDS011;11010;49.548;11.926;2023-12-04T06:49:08;20.43;;;7.60;;
21697;SDS011;11010;49.548;11.926;2023-12-04T06:51:36;19.00;;;8.13;;
21697;SDS011;11010;49.548;11.926;2023-12-04T06:54:03;17.97;;;6.73;;
21697;SDS011;11010;49.548;11.926;2023-12-04T06:56:31;19.07;;;6.83;;
21697;SDS011;11010;49.548;11.926;2023-12-04T06:58:58;18.47;;;6.93;;
21697;SDS011;11010;49.548;11.926;2023-12-04T07:01:26;17.83;;;6.73;;
21697;SDS011;11010;49.548;11.926;2023-12-04T07:03:54;18.00;;;6.80;;
21697;SDS011;11010;49.548;11.926;2023-12-04T07:06:21;17.10;;;7.03;;
21697;SDS011;11010;49.548;11.926;2023-12-04T07:08:49;18.43;;;6.87;;
21697;SDS011;11010;49.548;11.926;2023-12-04T07:11:16;18.77;;;7.20;;
21697;SDS011;11010;49.548;11.926;2023-12-04T07:13:44;16.20;;;6.40;;
21697;SDS011;11010;49.548;11.926;2023-12-04T07:16:11;18.47;;;6.87;;
21697;SDS011;11010;49.548;11.926;2023-12-04T07:18:39;17.07;;;6.60;;
21697;SDS011;11010;49.548;11.926;2023-12-04T07:21:06;17.77;;;6.80;;
21697;SDS011;11010;49.548;11.926;2023-12-04T07:23:34;17.63;;;7.13;;
21697;SDS011;11010;49.548;11.926;2023-12-04T07:26:01;19.03;;;7.10;;
21697;SDS011;11010;49.548;11.926;2023-12-04T07:28:30;17.37;;;6.63;;
21697;SDS011;11010;49.548;11.926;2023-12-04T07:30:57;18.00;;;6.67;;
21697;SDS011;11010;49.548;11.926;2023-12-04T07:33:24;17.70;;;7.20;;
21697;SDS011;11010;49.548;11.926;2023-12-04T07:35:53;19.50;;;6.90;;
21697;SDS011;11010;49.548;11.926;2023-12-04T07:38:20;18.97;;;7.37;;
21697;SDS011;11010;49.548;11.926;2023-12-04T07:40:49;19.40;;;7.07;;
21697;SDS011;11010;49.548;11.926;2023-12-04T07:43:17;21.83;;;6.93;;
21697;SDS011;11010;49.548;11.926;2023-12-04T07:45:44;18.37;;;7.00;;
21697;SDS011;11010;49.548;11.926;2023-12-04T07:48:12;19.03;;;7.37;;
21697;SDS011;11010;49.548;11.926;2023-12-04T07:50:40;18.37;;;6.33;;
21697;SDS011;11010;49.548;11.926;2023-12-04T07:53:07;18.07;;;7.00;;
21697;SDS011;11010;49.548;11.926;2023-12-04T07:55:36;19.93;;;7.23;;
21697;SDS011;11010;49.548;11.926;2023-12-04T07:58:03;18.93;;;7.17;;
21697;SDS011;11010;49.548;11.926;2023-12-04T08:00:31;18.47;;;7.33;;
21697;SDS011;11010;49.548;11.926;2023-12-04T08:02:59;21.23;;;7.47;;
21697;SDS011;11010;49.548;11.926;2023-12-04T08:05:26;23.40;;;8.07;;
21697;SDS011;11010;49.548;11.926;2023-12-04T08:07:54;17.90;;;7.00;;
21697;SDS011;11010;49.548;11.926;2023-12-04T08:10:22;19.23;;;7.33;;
21697;SDS011;11010;49.548;11.926;2023-12-04T08:12:49;21.27;;;7.83;;
21697;SDS011;11010;49.548;11.926;2023-12-04T08:15:17;19.10;;;7.37;;
21697;SDS011;11010;49.548;11.926;2023-12-04T08:17:44;18.17;;;6.87;;
21697;SDS011;11010;49.548;11.926;2023-12-04T08:20:12;18.40;;;6.53;;
21697;SDS011;11010;49.548;11.926;2023-12-04T08:22:49;19.77;;;6.83;;
21697;SDS011;11010;49.548;11.926;2023-12-04T08:25:17;18.80;;;7.87;;
21697;SDS011;11010;49.548;11.926;2023-12-04T08:27:45;17.60;;;7.00;;
21697;SDS011;11010;49.548;11.926;2023-12-04T08:30:12;21.20;;;7.47;;
21697;SDS011;11010;49.548;11.926;2023-12-04T08:32:39;18.37;;;6.47;;
21697;SDS011;11010;49.548;11.926;2023-12-04T08:35:07;15.40;;;5.70;;
21697;SDS011;11010;49.548;11.926;2023-12-04T08:37:35;15.83;;;6.67;;
21697;SDS011;11010;49.548;11.926;2023-12-04T08:40:02;19.13;;;6.63;;
21697;SDS011;11010;49.548;11.926;2023-12-04T08:42:30;18.47;;;7.20;;
21697;SDS011;11010;49.548;11.926;2023-12-04T08:44:58;16.60;;;6.50;;
21697;SDS011;11010;49.548;11.926;2023-12-04T08:47:25;17.57;;;7.40;;
21697;SDS011;11010;49.548;11.926;2023-12-04T08:49:53;16.30;;;6.37;;
21697;SDS011;11010;49.548;11.926;2023-12-04T08:52:20;15.73;;;7.03;;
21697;SDS011;11010;49.548;11.926;2023-12-04T08:54:48;24.30;;;9.80;;
21697;SDS011;11010;49.548;11.926;2023-12-04T08:57:15;16.47;;;6.93;;
21697;SDS011;11010;49.548;11.926;2023-12-04T08:59:42;20.33;;;8.73;;
21697;SDS011;11010;49.548;11.926;2023-12-04T09:02:10;18.77;;;6.33;;
21697;SDS011;11010;49.548;11.926;2023-12-04T09:04:40;17.20;;;6.73;;
21697;SDS011;11010;49.548;11.926;2023-12-04T09:07:08;17.47;;;6.10;;
21697;SDS011;11010;49.548;11.926;2023-12-04T09:09:55;17.37;;;7.47;;
21697;SDS011;11010;49.548;11.926;2023-12-04T09:12:23;20.40;;;9.70;;
21697;SDS011;11010;49.548;11.926;2023-12-04T09:14:50;21.93;;;9.57;;
21697;SDS011;11010;49.548;11.926;2023-12-04T09:17:18;17.93;;;7.53;;
21697;SDS011;11010;49.548;11.926;2023-12-04T09:19:49;17.37;;;7.83;;
21697;SDS011;11010;49.548;11.926;2023-12-04T09:22:16;21.40;;;8.27;;
21697;SDS011;11010;49.548;11.926;2023-12-04T09:24:46;19.60;;;7.33;;
21697;SDS011;11010;49.548;11.926;2023-12-04T09:27:14;18.40;;;7.73;;
21697;SDS011;11010;49.548;11.926;2023-12-04T09:29:41;17.70;;;7.37;;
21697;SDS011;11010;49.548;11.926;2023-12-04T09:32:09;17.67;;;6.87;;
21697;SDS011;11010;49.548;11.926;2023-12-04T09:34:37;19.03;;;6.87;;
21697;SDS011;11010;49.548;11.926;2023-12-04T09:37:04;18.53;;;7.07;;
21697;SDS011;11010;49.548;11.926;2023-12-04T09:39:37;16.23;;;6.07;;
21697;SDS011;11010;49.548;11.926;2023-12-04T09:42:06;17.47;;;6.93;;
21697;SDS011;11010;49.548;11.926;2023-12-04T09:44:34;17.47;;;6.67;;
21697;SDS011;11010;49.548;11.926;2023-12-04T09:47:03;16.47;;;6.13;;
21697;SDS011;11010;49.548;11.926;2023-12-04T09:49:32;16.47;;;6.10;;
21697;SDS011;11010;49.548;11.926;2023-12-04T09:52:00;16.60;;;6.17;;
21697;SDS011;11010;49.548;11.926;2023-12-04T09:54:29;15.60;;;6.20;;
21697;SDS011;11010;49.548;11.926;2023-12-04T09:56:57;16.30;;;5.63;;
21697;SDS011;11010;49.548;11.926;2023-12-04T09:59:25;14.57;;;5.67;;
21697;SDS011;11010;49.548;11.926;2023-12-04T10:01:53;16.63;;;6.30;;
21697;SDS011;11010;49.548;11.926;2023-12-04T10:04:20;15.83;;;5.87;;
21697;SDS011;11010;49.548;11.926;2023-12-04T10:06:51;15.17;;;5.97;;
21697;SDS011;11010;49.548;11.926;2023-12-04T10:09:19;17.23;;;6.47;;
21697;SDS011;11010;49.548;11.926;2023-12-04T10:11:51;16.20;;;5.77;;
21697;SDS011;11010;49.548;11.926;2023-12-04T10:14:19;16.17;;;6.23;;
21697;SDS011;11010;49.548;11.926;2023-12-04T10:16:47;18.73;;;6.83;;
21697;SDS011;11010;49.548;11.926;2023-12-04T10:19:21;16.43;;;6.27;;
21697;SDS011;11010;49.548;11.926;2023-12-04T10:21:58;21.70;;;7.67;;
21697;SDS011;11010;49.548;11.926;2023-12-04T10:26:57;18.03;;;7.50;;
21697;SDS011;11010;49.548;11.926;2023-12-04T10:29:28;16.67;;;6.70;;
21697;SDS011;11010;49.548;11.926;2023-12-04T10:32:00;15.57;;;6.13;;
21697;SDS011;11010;49.548;11.926;2023-12-04T10:34:29;15.30;;;5.80;;
21697;SDS011;11010;49.548;11.926;2023-12-04T10:37:00;16.17;;;5.63;;
21697;SDS011;11010;49.548;11.926;2023-12-04T10:39:28;14.40;;;5.67;;
21697;SDS011;11010;49.548;11.926;2023-12-04T10:41:59;13.53;;;5.50;;
21697;SDS011;11010;49.548;11.926;2023-12-04T10:44:28;15.03;;;5.60;;
21697;SDS011;11010;49.548;11.926;2023-12-04T10:46:55;19.43;;;7.40;;
21697;SDS011;11010;49.548;11.926;2023-12-04T10:49:27;26.07;;;9.27;;
21697;SDS011;11010;49.548;11.926;2023-12-04T10:51:55;30.87;;;10.40;;
21697;SDS011;11010;49.548;11.926;2023-12-04T10:54:26;34.87;;;11.57;;
21697;SDS011;11010;49.548;11.926;2023-12-04T10:56:56;30.90;;;10.40;;
21697;SDS011;11010;49.548;11.926;2023-12-04T10:59:27;24.63;;;8.63;;
21697;SDS011;11010;49.548;11.926;2023-12-04T11:01:55;19.70;;;6.83;;
21697;SDS011;11010;49.548;11.926;2023-12-04T11:04:23;17.53;;;6.53;;
21697;SDS011;11010;49.548;11.926;2023-12-04T11:06:53;17.20;;;5.43;;
21697;SDS011;11010;49.548;11.926;2023-12-04T11:09:21;17.33;;;5.67;;
21697;SDS011;11010;49.548;11.926;2023-12-04T11:11:55;16.73;;;6.13;;
21697;SDS011;11010;49.548;11.926;2023-12-04T11:14:25;15.97;;;6.43;;
21697;SDS011;11010;49.548;11.926;2023-12-04T11:17:07;20.30;;;6.80;;
21697;SDS011;11010;49.548;11.926;2023-12-04T11:22:05;18.83;;;7.70;;
21697;SDS011;11010;49.548;11.926;2023-12-04T11:24:35;20.10;;;8.10;;
21697;SDS011;11010;49.548;11.926;2023-12-04T11:27:03;25.57;;;10.47;;
21697;SDS011;11010;49.548;11.926;2023-12-04T11:29:31;25.47;;;10.87;;
21697;SDS011;11010;49.548;11.926;2023-12-04T11:31:59;23.07;;;9.40;;
21697;SDS011;11010;49.548;11.926;2023-12-04T11:34:27;20.33;;;8.47;;
21697;SDS011;11010;49.548;11.926;2023-12-04T11:36:55;18.77;;;7.43;;
21697;SDS011;11010;49.548;11.926;2023-12-04T11:39:25;19.60;;;7.83;;
21697;SDS011;11010;49.548;11.926;2023-12-04T11:41:52;19.60;;;7.43;;
21697;SDS011;11010;49.548;11.926;2023-12-04T11:44:20;19.37;;;6.80;;
21697;SDS011;11010;49.548;11.926;2023-12-04T11:46:56;15.93;;;6.57;;
21697;SDS011;11010;49.548;11.926;2023-12-04T11:49:27;15.77;;;6.13;;
21697;SDS011;11010;49.548;11.926;2023-12-04T11:52:05;19.47;;;6.30;;
21697;SDS011;11010;49.548;11.926;2023-12-04T11:54:55;14.87;;;5.87;;
21697;SDS011;11010;49.548;11.926;2023-12-04T11:57:24;22.03;;;8.80;;
21697;SDS011;11010;49.548;11.926;2023-12-04T11:59:57;24.13;;;11.23;;
21697;SDS011;11010;49.548;11.926;2023-12-04T12:02:38;21.47;;;9.27;;
21697;SDS011;11010;49.548;11.926;2023-12-04T12:05:26;19.97;;;7.80;;
21697;SDS011;11010;49.548;11.926;2023-12-04T12:07:54;20.20;;;7.47;;
21697;SDS011;11010;49.548;11.926;2023-12-04T12:10:22;21.93;;;7.80;;
21697;SDS011;11010;49.548;11.926;2023-12-04T12:12:49;30.83;;;11.17;;
21697;SDS011;11010;49.548;11.926;2023-12-04T12:15:18;28.27;;;11.17;;
21697;SDS011;11010;49.548;11.926;2023-12-04T12:17:45;31.20;;;10.90;;
21697;SDS011;11010;49.548;11.926;2023-12-04T12:20:13;25.40;;;8.97;;
21697;SDS011;11010;49.548;11.926;2023-12-04T12:22:41;26.07;;;9.97;;
21697;SDS011;11010;49.548;11.926;2023-12-04T12:25:12;20.93;;;7.80;;
21697;SDS011;11010;49.548;11.926;2023-12-04T12:27:40;23.00;;;8.27;;
21697;SDS011;11010;49.548;11.926;2023-12-04T12:30:09;22.37;;;7.67;;
21697;SDS011;11010;49.548;11.926;2023-12-04T12:32:37;20.93;;;7.97;;
21697;SDS011;11010;49.548;11.926;2023-12-04T12:35:04;17.10;;;6.73;;
21697;SDS011;11010;49.548;11.926;2023-12-04T12:37:34;22.10;;;7.53;;
21697;SDS011;11010;49.548;11.926;2023-12-04T12:40:03;27.87;;;8.40;;
21697;SDS011;11010;49.548;11.926;2023-12-04T12:42:31;21.50;;;7.90;;
21697;SDS011;11010;49.548;11.926;2023-12-04T12:45:00;22.83;;;6.87;;
21697;SDS011;11010;49.548;11.926;2023-12-04T12:47:30;18.10;;;5.93;;
21697;SDS011;11010;49.548;11.926;2023-12-04T12:50:00;17.40;;;5.97;;
21697;SDS011;11010;49.548;11.926;2023-12-04T12:52:29;16.47;;;5.27;;
21697;SDS011;11010;49.548;11.926;2023-12-04T12:54:56;14.97;;;5.27;;
21697;SDS011;11010;49.548;11.926;2023-12-04T12:57:24;14.50;;;5.77;;
21697;SDS011;11010;49.548;11.926;2023-12-04T12:59:52;16.47;;;5.70;;
21697;SDS011;11010;49.548;11.926;2023-12-04T13:02:24;16.13;;;5.93;;
21697;SDS011;11010;49.548;11.926;2023-12-04T13:04:51;17.47;;;5.87;;
21697;SDS011;11010;49.548;11.926;2023-12-04T13:07:19;14.10;;;5.23;;
21697;SDS011;11010;49.548;11.926;2023-12-04T13:09:47;16.50;;;5.43;;
21697;SDS011;11010;49.548;11.926;2023-12-04T13:12:16;16.77;;;5.70;;
21697;SDS011;11010;49.548;11.926;2023-12-04T13:14:44;14.73;;;5.43;;
21697;SDS011;11010;49.548;11.926;2023-12-04T13:17:11;15.87;;;5.27;;
21697;SDS011;11010;49.548;11.926;2023-12-04T13:19:39;15.40;;;5.40;;
21697;SDS011;11010;49.548;11.926;2023-12-04T13:22:06;16.10;;;5.57;;
21697;SDS011;11010;49.548;11.926;2023-12-04T13:24:34;17.83;;;5.83;;
21697;SDS011;11010;49.548;11.926;2023-12-04T13:27:01;18.67;;;6.33;;
21697;SDS011;11010;49.548;11.926;2023-12-04T13:29:29;17.03;;;6.03;;
21697;SDS011;11010;49.548;11.926;2023-12-04T13:31:57;16.37;;;6.00;;
21697;SDS011;11010;49.548;11.926;2023-12-04T13:34:25;16.60;;;5.50;;
21697;SDS011;11010;49.548;11.926;2023-12-04T13:36:53;16.90;;;5.67;;
21697;SDS011;11010;49.548;11.926;2023-12-04T13:39:20;15.40;;;5.80;;
21697;SDS011;11010;49.548;11.926;2023-12-04T13:42:05;13.40;;;5.17;;
21697;SDS011;11010;49.548;11.926;2023-12-04T13:44:51;16.20;;;5.43;;
21697;SDS011;11010;49.548;11.926;2023-12-04T13:47:19;14.60;;;5.20;;
21697;SDS011;11010;49.548;11.926;2023-12-04T13:49:47;14.47;;;5.47;;
21697;SDS011;11010;49.548;11.926;2023-12-04T13:52:15;15.17;;;5.07;;
21697;SDS011;11010;49.548;11.926;2023-12-04T13:54:47;16.27;;;4.67;;
21697;SDS011;11010;49.548;11.926;2023-12-04T13:57:15;14.93;;;4.83;;
21697;SDS011;11010;49.548;11.926;2023-12-04T14:00:06;12.40;;;4.43;;
21697;SDS011;11010;49.548;11.926;2023-12-04T14:02:34;14.73;;;5.07;;
21697;SDS011;11010;49.548;11.926;2023-12-04T14:05:04;14.80;;;5.17;;
21697;SDS011;11010;49.548;11.926;2023-12-04T14:07:31;14.00;;;5.03;;
21697;SDS011;11010;49.548;11.926;2023-12-04T14:10:01;15.90;;;5.47;;
21697;SDS011;11010;49.548;11.926;2023-12-04T14:12:32;14.77;;;5.23;;
21697;SDS011;11010;49.548;11.926;2023-12-04T14:15:03;15.57;;;5.47;;
21697;SDS011;11010;49.548;11.926;2023-12-04T14:17:34;15.83;;;5.33;;
21697;SDS011;11010;49.548;11.926;2023-12-04T14:20:02;13.93;;;4.97;;
21697;SDS011;11010;49.548;11.926;2023-12-04T14:22:39;16.40;;;5.37;;
21697;SDS011;11010;49.548;11.926;2023-12-04T14:25:07;14.10;;;4.63;;
21697;SDS011;11010;49.548;11.926;2023-12-04T14:27:34;15.27;;;5.27;;
21697;SDS011;11010;49.548;11.926;2023-12-04T14:30:09;16.27;;;5.40;;
21697;SDS011;11010;49.548;11.926;2023-12-04T14:32:37;17.80;;;5.43;;
21697;SDS011;11010;49.548;11.926;2023-12-04T14:35:13;14.23;;;5.03;;